createdAt,value
2023-12-30T00:00:24.025Z,55.79
2023-12-30T00:02:52.144Z,55.91
2023-12-30T00:05:20.099Z,55.86
2023-12-30T00:07:47.959Z,55.99
2023-12-30T00:10:15.892Z,55.96
2023-12-30T00:12:43.677Z,55.79
2023-12-30T00:15:13.222Z,55.94
2023-12-30T00:17:41.070Z,56.08
2023-12-30T00:20:10.046Z,55.73
2023-12-30T00:22:38.025Z,55.79
2023-12-30T00:25:06.304Z,55.59
2023-12-30T00:27:35.322Z,55.78
2023-12-30T00:30:03.380Z,55.90
2023-12-30T00:32:33.823Z,55.72
2023-12-30T00:35:01.852Z,55.71
2023-12-30T00:37:29.745Z,55.86
2023-12-30T00:39:57.494Z,55.93
2023-12-30T00:42:25.585Z,55.86
2023-12-30T00:44:53.377Z,55.77
2023-12-30T00:47:21.348Z,55.70
2023-12-30T00:49:50.572Z,55.80
2023-12-30T00:52:18.698Z,55.86
2023-12-30T00:54:51.413Z,55.89
2023-12-30T00:57:19.540Z,55.96
2023-12-30T00:59:46.595Z,56.13
2023-12-30T01:02:14.524Z,56.13
2023-12-30T01:04:42.937Z,56.31
2023-12-30T01:07:12.142Z,56.15
2023-12-30T01:09:42.485Z,56.06
2023-12-30T01:12:10.473Z,56.06
2023-12-30T01:14:38.243Z,56.10
2023-12-30T01:17:06.210Z,55.98
2023-12-30T01:19:34.085Z,55.76
2023-12-30T01:22:01.987Z,56.20
2023-12-30T01:24:31.173Z,55.65
2023-12-30T01:26:59.024Z,55.86
2023-12-30T01:29:30.206Z,55.79
2023-12-30T01:31:58.188Z,55.66
2023-12-30T01:34:26.197Z,55.64
2023-12-30T01:36:55.829Z,55.32
2023-12-30T01:39:23.746Z,55.61
2023-12-30T01:41:53.231Z,55.16
2023-12-30T01:44:21.122Z,55.66
2023-12-30T01:46:49.411Z,55.13
2023-12-30T01:49:17.473Z,55.81
2023-12-30T01:51:45.422Z,55.92
2023-12-30T01:54:13.356Z,56.09
2023-12-30T01:56:41.220Z,55.96
2023-12-30T01:59:10.435Z,56.52
2023-12-30T02:01:38.564Z,56.56
2023-12-30T02:04:06.533Z,56.63
2023-12-30T02:06:34.425Z,57.17
2023-12-30T02:09:03.646Z,56.91
2023-12-30T02:11:31.485Z,56.75
2023-12-30T02:13:59.356Z,56.89
2023-12-30T02:16:28.678Z,57.04
2023-12-30T02:18:56.926Z,57.06
2023-12-30T02:21:24.843Z,57.14
2023-12-30T02:23:56.801Z,57.38
2023-12-30T02:26:25.499Z,57.07
2023-12-30T02:28:53.605Z,57.15
2023-12-30T02:31:21.378Z,57.57
2023-12-30T02:33:49.339Z,57.39
2023-12-30T02:36:17.234Z,56.91
2023-12-30T02:38:45.084Z,57.61
2023-12-30T02:41:14.444Z,57.14
2023-12-30T02:43:48.381Z,57.32
2023-12-30T02:46:16.146Z,57.55
2023-12-30T02:48:44.051Z,57.33
2023-12-30T02:51:16.533Z,57.33
2023-12-30T02:53:44.305Z,57.33
2023-12-30T02:56:21.331Z,57.02
2023-12-30T02:58:51.081Z,57.05
2023-12-30T03:01:19.088Z,57.47
2023-12-30T03:03:47.083Z,57.33
2023-12-30T03:06:16.733Z,57.01
2023-12-30T03:08:44.584Z,57.17
2023-12-30T03:11:12.821Z,57.23
2023-12-30T03:13:42.172Z,57.53
2023-12-30T03:16:12.193Z,57.58
2023-12-30T03:18:40.388Z,57.52
2023-12-30T03:21:09.464Z,57.58
2023-12-30T03:23:37.470Z,57.65
2023-12-30T03:26:05.759Z,57.87
2023-12-30T03:28:33.770Z,57.64
2023-12-30T03:31:03.152Z,57.63
2023-12-30T03:33:31.004Z,57.30
2023-12-30T03:35:58.824Z,57.93
2023-12-30T03:38:26.606Z,57.71
2023-12-30T03:40:55.133Z,57.61
2023-12-30T03:43:22.973Z,58.23
2023-12-30T03:45:50.769Z,57.83
2023-12-30T03:48:20.120Z,57.36
2023-12-30T03:50:48.005Z,57.74
2023-12-30T03:53:15.737Z,57.29
2023-12-30T03:55:43.598Z,57.11
2023-12-30T03:58:11.486Z,57.30
2023-12-30T04:00:39.286Z,57.86
2023-12-30T04:03:07.323Z,57.69
2023-12-30T04:05:36.751Z,57.72
2023-12-30T04:08:05.089Z,57.53
2023-12-30T04:10:32.971Z,57.77
2023-12-30T04:13:01.045Z,57.53
2023-12-30T04:15:29.944Z,57.15
2023-12-30T04:17:57.772Z,57.44
2023-12-30T04:20:25.607Z,57.68
2023-12-30T04:22:55.930Z,57.07
2023-12-30T04:25:23.864Z,57.44
2023-12-30T04:27:51.734Z,57.73
2023-12-30T04:30:19.580Z,57.52
2023-12-30T04:32:47.477Z,57.25
2023-12-30T04:35:15.274Z,57.12
2023-12-30T04:37:43.061Z,57.26
2023-12-30T04:40:13.269Z,57.32
2023-12-30T04:42:41.102Z,56.96
2023-12-30T04:45:14.048Z,57.04
2023-12-30T04:47:42.377Z,56.99
2023-12-30T04:50:10.648Z,56.94
2023-12-30T04:52:38.781Z,56.75
2023-12-30T04:55:07.790Z,56.86
2023-12-30T04:57:37.165Z,56.50
2023-12-30T05:00:05.729Z,56.72
2023-12-30T05:02:33.488Z,56.95
2023-12-30T05:05:01.247Z,56.72
2023-12-30T05:07:29.165Z,56.61
2023-12-30T05:09:57.088Z,56.43
2023-12-30T05:12:25.286Z,56.40
2023-12-30T05:14:54.433Z,56.71
2023-12-30T05:17:22.296Z,56.48
2023-12-30T05:19:50.101Z,56.85
2023-12-30T05:22:17.877Z,56.78
2023-12-30T05:24:45.583Z,56.75
2023-12-30T05:27:13.394Z,56.85
2023-12-30T05:29:41.241Z,56.79
2023-12-30T05:32:10.310Z,57.02
2023-12-30T05:34:38.491Z,56.55
2023-12-30T05:37:06.374Z,56.56
2023-12-30T05:39:34.230Z,56.73
2023-12-30T05:42:01.996Z,56.90
2023-12-30T05:44:29.742Z,57.06
2023-12-30T05:46:57.596Z,56.86
2023-12-30T05:49:26.800Z,57.23
2023-12-30T05:51:54.687Z,56.70
2023-12-30T05:54:22.567Z,56.62
2023-12-30T05:56:50.411Z,56.69
2023-12-30T05:59:18.210Z,57.52
2023-12-30T06:01:47.223Z,57.31
2023-12-30T06:04:15.621Z,56.72
2023-12-30T06:06:45.233Z,57.13
2023-12-30T06:09:12.996Z,57.07
2023-12-30T06:11:41.125Z,57.34
2023-12-30T06:14:08.944Z,57.09
2023-12-30T06:16:36.977Z,56.91
2023-12-30T06:19:04.899Z,56.77
2023-12-30T06:21:35.803Z,56.74
2023-12-30T06:24:05.157Z,57.11
2023-12-30T06:26:33.075Z,57.56
2023-12-30T06:29:01.358Z,57.13
2023-12-30T06:31:29.239Z,57.18
2023-12-30T06:33:57.418Z,57.21
2023-12-30T06:36:25.365Z,57.45
2023-12-30T06:38:53.265Z,56.93
2023-12-30T06:41:22.335Z,57.19
2023-12-30T06:43:50.274Z,57.41
2023-12-30T06:46:20.394Z,57.00
2023-12-30T06:48:50.838Z,57.00
2023-12-30T06:51:19.117Z,57.26
2023-12-30T06:53:46.978Z,57.06
2023-12-30T06:56:15.080Z,57.10
2023-12-30T06:58:46.486Z,56.89
2023-12-30T07:01:14.446Z,57.28
2023-12-30T07:03:42.427Z,57.05
2023-12-30T07:06:10.251Z,57.20
2023-12-30T07:08:38.103Z,57.35
2023-12-30T07:11:06.196Z,56.77
2023-12-30T07:13:33.999Z,57.09
2023-12-30T07:16:03.157Z,57.28
2023-12-30T07:18:30.922Z,56.56
2023-12-30T07:20:58.679Z,56.95
2023-12-30T07:23:26.377Z,56.81
2023-12-30T07:25:54.121Z,57.12
2023-12-30T07:28:22.948Z,56.93
2023-12-30T07:30:51.406Z,57.05
2023-12-30T07:33:20.864Z,57.32
2023-12-30T07:35:48.642Z,57.19
2023-12-30T07:38:16.380Z,57.16
2023-12-30T07:40:44.222Z,57.12
2023-12-30T07:43:12.169Z,56.97
2023-12-30T07:45:39.898Z,56.95
2023-12-30T07:48:07.991Z,56.78
2023-12-30T07:50:37.175Z,56.93
2023-12-30T07:53:05.661Z,57.00
2023-12-30T07:55:33.746Z,56.96
2023-12-30T07:58:02.107Z,56.77
2023-12-30T08:00:30.009Z,57.07
2023-12-30T08:02:57.733Z,56.94
2023-12-30T08:05:25.627Z,57.12
2023-12-30T08:07:54.825Z,56.95
2023-12-30T08:10:22.756Z,56.85
2023-12-30T08:12:50.610Z,56.94
2023-12-30T08:15:18.376Z,56.94
2023-12-30T08:17:46.438Z,57.22
2023-12-30T08:20:14.290Z,56.85
2023-12-30T08:22:42.340Z,56.89
2023-12-30T08:25:11.956Z,56.95
2023-12-30T08:27:40.822Z,56.89
2023-12-30T08:30:09.678Z,57.25
2023-12-30T08:32:38.026Z,56.84
2023-12-30T08:35:08.831Z,56.51
2023-12-30T08:37:37.139Z,56.76
2023-12-30T08:42:37.110Z,56.56
2023-12-30T08:45:05.845Z,56.70
2023-12-30T08:47:35.612Z,56.57
2023-12-30T08:50:05.039Z,56.07
2023-12-30T08:52:33.019Z,56.19
2023-12-30T08:55:01.578Z,56.14
2023-12-30T08:57:29.312Z,56.19
2023-12-30T08:59:58.613Z,56.16
2023-12-30T09:02:26.337Z,56.03
2023-12-30T09:04:57.478Z,56.15
2023-12-30T09:07:25.528Z,55.96
2023-12-30T09:09:53.430Z,56.15
2023-12-30T09:12:21.404Z,56.04
2023-12-30T09:14:49.298Z,55.91
2023-12-30T09:17:18.393Z,55.84
2023-12-30T09:19:46.371Z,55.92
2023-12-30T09:22:14.278Z,55.98
2023-12-30T09:24:42.431Z,55.77
2023-12-30T09:27:10.221Z,55.55
2023-12-30T09:29:38.189Z,55.73
2023-12-30T09:32:06.620Z,55.84
2023-12-30T09:34:41.759Z,55.83
2023-12-30T09:37:12.491Z,55.83
2023-12-30T09:39:40.432Z,55.73
2023-12-30T09:42:08.270Z,55.80
2023-12-30T09:44:36.564Z,55.94
2023-12-30T09:47:08.652Z,56.07
2023-12-30T09:49:38.457Z,55.99
2023-12-30T09:52:07.784Z,55.66
2023-12-30T09:54:45.387Z,55.75
2023-12-30T09:57:17.600Z,55.50
2023-12-30T09:59:46.535Z,55.09
2023-12-30T10:02:14.987Z,55.58
2023-12-30T10:04:44.315Z,55.36
2023-12-30T10:07:13.066Z,55.48
2023-12-30T10:09:43.290Z,55.25
2023-12-30T10:12:11.514Z,54.80
2023-12-30T10:14:39.281Z,54.85
2023-12-30T10:17:07.130Z,54.76
2023-12-30T10:19:34.901Z,54.42
2023-12-30T10:22:04.501Z,54.12
2023-12-30T10:24:32.769Z,54.16
2023-12-30T10:27:05.257Z,53.33
2023-12-30T10:29:42.942Z,53.02
2023-12-30T10:32:18.625Z,52.80
2023-12-30T10:34:46.558Z,52.54
2023-12-30T10:37:14.792Z,52.54
2023-12-30T10:39:42.786Z,52.52
2023-12-30T10:42:11.849Z,52.06
2023-12-30T10:44:39.566Z,51.57
2023-12-30T10:47:09.504Z,50.57
2023-12-30T10:49:37.513Z,50.25
2023-12-30T10:52:05.927Z,49.95
2023-12-30T10:54:35.900Z,49.38
2023-12-30T10:57:04.822Z,49.27
2023-12-30T10:59:33.435Z,49.73
2023-12-30T11:02:01.191Z,49.41
2023-12-30T11:04:28.979Z,49.21
2023-12-30T11:06:58.243Z,49.78
2023-12-30T11:09:28.503Z,49.69
2023-12-30T11:12:01.594Z,49.26
2023-12-30T11:14:29.313Z,49.21
2023-12-30T11:16:58.583Z,49.42
2023-12-30T11:19:27.320Z,49.00
2023-12-30T11:21:55.771Z,49.25
2023-12-30T11:24:23.909Z,49.16
2023-12-30T11:26:53.832Z,48.69
2023-12-30T11:29:26.184Z,49.74
2023-12-30T11:31:54.607Z,49.14
2023-12-30T11:34:22.727Z,49.18
2023-12-30T11:36:51.207Z,48.62
2023-12-30T11:39:25.092Z,49.14
2023-12-30T11:41:54.376Z,49.45
2023-12-30T11:44:23.918Z,49.00
2023-12-30T11:46:51.834Z,48.95
2023-12-30T11:49:23.821Z,48.64
2023-12-30T11:51:51.987Z,49.18
2023-12-30T11:54:21.205Z,49.14
2023-12-30T11:56:49.096Z,48.67
2023-12-30T11:59:16.902Z,49.24
2023-12-30T12:01:48.281Z,48.89
2023-12-30T12:04:16.506Z,48.84
2023-12-30T12:06:44.325Z,48.90
2023-12-30T12:09:12.214Z,49.11
2023-12-30T12:11:40.393Z,48.65
2023-12-30T12:14:08.188Z,49.08
2023-12-30T12:16:36.349Z,48.88
2023-12-30T12:19:06.248Z,48.90
2023-12-30T12:21:34.074Z,48.92
2023-12-30T12:24:01.961Z,48.51
2023-12-30T12:26:33.213Z,48.21
2023-12-30T12:29:01.326Z,47.82
2023-12-30T12:31:30.632Z,47.27
2023-12-30T12:33:59.693Z,46.65
2023-12-30T12:36:30.853Z,45.62
2023-12-30T12:38:58.832Z,44.05
2023-12-30T12:41:26.660Z,43.39
2023-12-30T12:43:54.569Z,42.95
2023-12-30T12:46:24.063Z,43.39
2023-12-30T12:48:53.017Z,44.19
2023-12-30T12:51:20.816Z,44.83
2023-12-30T12:53:50.026Z,45.36
2023-12-30T12:56:17.792Z,45.51
2023-12-30T12:58:45.731Z,45.93
2023-12-30T13:01:13.733Z,45.91
2023-12-30T13:03:41.552Z,46.30
2023-12-30T13:06:14.204Z,46.85
2023-12-30T13:08:42.668Z,46.32
2023-12-30T13:11:12.002Z,46.83
2023-12-30T13:16:13.210Z,46.87
2023-12-30T13:18:41.043Z,47.44
2023-12-30T13:21:09.662Z,47.62
2023-12-30T13:23:38.687Z,47.13
2023-12-30T13:26:07.058Z,47.38
2023-12-30T13:28:36.666Z,47.21
2023-12-30T13:31:07.481Z,47.21
2023-12-30T13:33:37.196Z,47.40
2023-12-30T13:36:09.074Z,47.52
2023-12-30T13:38:41.635Z,47.80
2023-12-30T13:41:09.372Z,47.56
2023-12-30T13:43:39.638Z,47.50
2023-12-30T13:46:28.231Z,47.34
2023-12-30T13:49:10.370Z,46.58
2023-12-30T13:51:38.544Z,46.37
2023-12-30T13:54:07.144Z,46.06
2023-12-30T13:56:37.351Z,45.96
2023-12-30T13:59:10.099Z,46.60
2023-12-30T14:01:38.524Z,46.39
2023-12-30T14:04:08.293Z,46.38
2023-12-30T14:06:39.520Z,46.19
2023-12-30T14:09:24.117Z,45.79
2023-12-30T14:11:56.326Z,46.53
2023-12-30T14:14:28.079Z,46.56
2023-12-30T14:16:58.792Z,46.20
2023-12-30T14:19:27.020Z,46.75
2023-12-30T14:21:54.923Z,46.37
2023-12-30T14:24:23.777Z,46.42
2023-12-30T14:26:51.699Z,46.17
2023-12-30T14:29:19.854Z,46.98
2023-12-30T14:31:49.713Z,46.66
2023-12-30T14:34:17.822Z,47.23
2023-12-30T14:36:48.334Z,47.22
2023-12-30T14:39:16.660Z,47.60
2023-12-30T14:41:44.647Z,47.60
2023-12-30T14:44:12.712Z,47.58
2023-12-30T14:46:41.269Z,47.79
2023-12-30T14:49:10.829Z,48.12
2023-12-30T14:51:38.664Z,47.76
2023-12-30T14:54:06.799Z,47.78
2023-12-30T14:56:35.327Z,47.99
2023-12-30T14:59:03.418Z,48.43
2023-12-30T15:01:32.044Z,48.58
2023-12-30T15:04:03.091Z,48.23
2023-12-30T15:06:32.451Z,48.22
2023-12-30T15:09:00.489Z,48.77
2023-12-30T15:11:28.757Z,48.36
2023-12-30T15:13:56.902Z,48.25
2023-12-30T15:16:25.009Z,48.35
2023-12-30T15:18:52.874Z,48.65
2023-12-30T15:21:20.951Z,48.67
2023-12-30T15:23:50.101Z,48.78
2023-12-30T15:26:19.025Z,48.27
2023-12-30T15:28:47.011Z,48.61
2023-12-30T15:31:14.982Z,48.65
2023-12-30T15:33:43.089Z,48.57
2023-12-30T15:36:11.359Z,48.35
2023-12-30T15:38:39.754Z,48.54
2023-12-30T15:41:09.021Z,49.02
2023-12-30T15:43:37.152Z,48.73
2023-12-30T15:46:08.551Z,48.42
2023-12-30T15:48:37.631Z,48.53
2023-12-30T15:51:05.858Z,47.89
2023-12-30T15:53:33.996Z,48.46
2023-12-30T15:56:02.000Z,48.49
2023-12-30T15:58:31.131Z,48.49
2023-12-30T16:00:59.010Z,48.65
2023-12-30T16:03:27.125Z,48.02
2023-12-30T16:05:55.062Z,48.35
2023-12-30T16:08:22.822Z,48.09
2023-12-30T16:10:50.950Z,48.69
2023-12-30T16:13:18.879Z,48.19
2023-12-30T16:15:51.471Z,48.53
2023-12-30T16:18:19.539Z,48.41
2023-12-30T16:20:47.477Z,48.78
2023-12-30T16:23:15.403Z,48.42
2023-12-30T16:25:43.416Z,48.38
2023-12-30T16:28:11.522Z,48.18
2023-12-30T16:30:39.460Z,48.58
2023-12-30T16:33:08.976Z,48.08
2023-12-30T16:35:37.257Z,48.30
2023-12-30T16:38:05.543Z,48.41
2023-12-30T16:40:34.456Z,48.64
2023-12-30T16:43:02.694Z,48.81
2023-12-30T16:45:30.949Z,48.43
2023-12-30T16:47:58.807Z,48.32
2023-12-30T16:50:30.606Z,48.81
2023-12-30T16:52:58.440Z,48.79
2023-12-30T16:55:27.416Z,48.69
2023-12-30T16:57:56.288Z,48.43
2023-12-30T17:00:24.851Z,48.97
2023-12-30T17:02:52.987Z,49.06
2023-12-30T17:05:24.750Z,49.57
2023-12-30T17:07:54.057Z,49.29
2023-12-30T17:10:22.084Z,50.15
2023-12-30T17:12:50.129Z,49.22
2023-12-30T17:15:18.245Z,49.61
2023-12-30T17:17:46.042Z,50.46
2023-12-30T17:20:14.210Z,50.19
2023-12-30T17:22:42.163Z,50.23
2023-12-30T17:25:11.719Z,50.35
2023-12-30T17:27:39.840Z,50.35
2023-12-30T17:30:09.167Z,50.24
2023-12-30T17:32:37.293Z,50.76
2023-12-30T17:35:06.748Z,50.77
2023-12-30T17:37:35.196Z,51.24
2023-12-30T17:40:04.471Z,51.39
2023-12-30T17:42:33.768Z,51.32
2023-12-30T17:45:01.666Z,51.22
2023-12-30T17:47:29.472Z,51.33
2023-12-30T17:49:57.520Z,51.37
2023-12-30T17:52:25.388Z,51.49
2023-12-30T17:54:53.295Z,51.26
2023-12-30T17:57:21.268Z,51.48
2023-12-30T17:59:51.071Z,51.36
2023-12-30T18:02:20.146Z,51.63
2023-12-30T18:04:48.311Z,51.65
2023-12-30T18:07:16.849Z,51.66
2023-12-30T18:09:47.828Z,51.96
2023-12-30T18:12:16.108Z,51.89
2023-12-30T18:14:44.080Z,51.87
2023-12-30T18:17:13.249Z,51.99
2023-12-30T18:19:43.374Z,52.19
2023-12-30T18:22:12.073Z,52.20
2023-12-30T18:24:40.095Z,52.46
2023-12-30T18:27:08.112Z,52.12
2023-12-30T18:29:40.566Z,52.38
2023-12-30T18:32:11.963Z,52.62
2023-12-30T18:35:01.460Z,52.28
2023-12-30T18:37:29.325Z,52.56
2023-12-30T18:39:57.254Z,52.55
2023-12-30T18:42:25.471Z,52.51
2023-12-30T18:44:53.218Z,52.84
2023-12-30T18:47:21.311Z,52.53
2023-12-30T18:49:49.297Z,52.65
2023-12-30T18:52:19.084Z,52.94
2023-12-30T18:54:47.029Z,52.64
2023-12-30T18:57:16.597Z,52.98
2023-12-30T18:59:44.588Z,53.11
2023-12-30T19:02:13.098Z,53.40
2023-12-30T19:04:44.614Z,53.08
2023-12-30T19:07:12.651Z,53.06
2023-12-30T19:09:42.607Z,53.08
2023-12-30T19:12:10.588Z,53.03
2023-12-30T19:14:38.487Z,53.13
2023-12-30T19:17:06.527Z,52.98
2023-12-30T19:19:34.376Z,53.05
2023-12-30T19:22:03.274Z,52.98
2023-12-30T19:24:33.018Z,52.86
2023-12-30T19:27:04.157Z,53.16
2023-12-30T19:29:32.046Z,53.01
2023-12-30T19:31:59.930Z,53.20
2023-12-30T19:34:28.024Z,53.15
2023-12-30T19:36:56.678Z,53.32
2023-12-30T19:39:25.865Z,53.45
2023-12-30T19:41:54.290Z,54.00
2023-12-30T19:44:23.068Z,53.87
2023-12-30T19:46:51.294Z,53.74
2023-12-30T19:49:20.869Z,53.79
2023-12-30T19:51:49.092Z,53.94
2023-12-30T19:54:18.386Z,53.36
2023-12-30T19:56:47.017Z,53.70
2023-12-30T19:59:15.430Z,53.88
2023-12-30T20:01:46.536Z,53.82
2023-12-30T20:04:15.579Z,53.94
2023-12-30T20:06:47.945Z,54.46
2023-12-30T20:09:15.879Z,54.17
2023-12-30T20:11:44.700Z,54.30
2023-12-30T20:14:14.922Z,54.43
2023-12-30T20:16:44.921Z,54.30
2023-12-30T20:19:13.305Z,54.26
2023-12-30T20:21:41.381Z,54.01
2023-12-30T20:24:11.446Z,54.58
2023-12-30T20:26:40.547Z,54.42
2023-12-30T20:29:09.815Z,54.46
2023-12-30T20:31:39.384Z,54.80
2023-12-30T20:34:09.315Z,54.76
2023-12-30T20:36:37.925Z,54.73
2023-12-30T20:39:07.534Z,54.68
2023-12-30T20:41:35.325Z,54.60
2023-12-30T20:44:03.344Z,54.60
2023-12-30T20:46:31.166Z,54.99
2023-12-30T20:48:59.099Z,54.89
2023-12-30T20:51:28.613Z,55.00
2023-12-30T20:53:57.446Z,54.83
2023-12-30T20:56:25.460Z,54.89
2023-12-30T20:59:07.052Z,55.13
2023-12-30T21:01:37.428Z,54.76
2023-12-30T21:04:07.188Z,54.83
2023-12-30T21:06:36.504Z,54.80
2023-12-30T21:09:04.488Z,54.94
2023-12-30T21:11:32.255Z,54.57
2023-12-30T21:14:00.644Z,54.92
2023-12-30T21:16:28.615Z,54.81
2023-12-30T21:18:56.626Z,54.70
2023-12-30T21:21:24.573Z,54.75
2023-12-30T21:23:53.864Z,55.22
2023-12-30T21:26:22.836Z,55.11
2023-12-30T21:28:50.927Z,55.22
2023-12-30T21:31:18.911Z,55.18
2023-12-30T21:33:50.124Z,55.20
2023-12-30T21:36:19.236Z,56.00
2023-12-30T21:38:47.423Z,56.00
2023-12-30T21:41:24.290Z,57.26
2023-12-30T21:43:52.604Z,57.11
2023-12-30T21:46:20.779Z,58.15
2023-12-30T21:48:48.830Z,58.09
2023-12-30T21:51:18.622Z,58.51
2023-12-30T21:53:46.780Z,59.06
2023-12-30T21:56:18.775Z,58.67
2023-12-30T21:58:49.464Z,59.19
2023-12-30T22:01:17.738Z,59.27
2023-12-30T22:03:46.015Z,59.25
2023-12-30T22:06:14.880Z,59.55
2023-12-30T22:08:49.547Z,59.64
2023-12-30T22:11:18.706Z,59.23
2023-12-30T22:13:48.678Z,59.50
2023-12-30T22:16:16.903Z,59.92
2023-12-30T22:18:44.940Z,59.45
2023-12-30T22:21:13.064Z,59.18
2023-12-30T22:23:41.207Z,59.32
2023-12-30T22:26:10.342Z,59.64
2023-12-30T22:28:38.311Z,59.66
2023-12-30T22:31:09.729Z,59.75
2023-12-30T22:33:38.163Z,59.61
2023-12-30T22:36:06.499Z,59.73
2023-12-30T22:38:35.683Z,59.93
2023-12-30T22:41:03.644Z,59.88
2023-12-30T22:43:31.638Z,59.35
2023-12-30T22:46:00.631Z,59.62
2023-12-30T22:48:30.091Z,59.47
2023-12-30T22:50:58.462Z,59.61
2023-12-30T22:53:26.614Z,59.93
2023-12-30T22:55:54.730Z,59.55
2023-12-30T22:58:22.893Z,59.37
2023-12-30T23:00:53.006Z,59.03
2023-12-30T23:03:21.067Z,59.85
2023-12-30T23:05:50.648Z,59.11
2023-12-30T23:08:18.901Z,59.42
2023-12-30T23:10:47.095Z,59.39
2023-12-30T23:13:15.327Z,59.18
2023-12-30T23:15:43.627Z,59.18
2023-12-30T23:18:12.360Z,59.08
2023-12-30T23:20:40.914Z,59.38
2023-12-30T23:23:10.240Z,58.82
2023-12-30T23:25:38.361Z,58.81
2023-12-30T23:28:06.951Z,58.97
2023-12-30T23:30:35.041Z,58.68
2023-12-30T23:33:03.226Z,58.70
2023-12-30T23:35:31.697Z,59.25
2023-12-30T23:37:59.672Z,58.96
2023-12-30T23:40:29.208Z,58.67
2023-12-30T23:42:57.057Z,58.90
2023-12-30T23:45:25.129Z,59.07
2023-12-30T23:47:53.133Z,59.41
2023-12-30T23:50:21.394Z,58.84
2023-12-30T23:52:49.221Z,58.59
2023-12-30T23:55:17.244Z,58.85
2023-12-30T23:57:46.624Z,58.76
